createdAt,value
2019-02-16T00:00:15.805Z,9.47
2019-02-16T00:02:46.492Z,10.40
2019-02-16T00:05:17.067Z,10.27
2019-02-16T00:07:47.446Z,9.50
2019-02-16T00:10:17.972Z,8.70
2019-02-16T00:12:50.489Z,9.70
2019-02-16T00:15:21.294Z,8.97
2019-02-16T00:17:52.313Z,9.50
2019-02-16T00:20:23.018Z,9.20
2019-02-16T00:22:53.976Z,8.90
2019-02-16T00:25:25.148Z,9.70
2019-02-16T00:27:55.780Z,9.10
2019-02-16T00:30:27.009Z,8.47
2019-02-16T00:32:57.736Z,8.60
2019-02-16T00:35:28.526Z,8.53
2019-02-16T00:37:59.020Z,8.40
2019-02-16T00:40:29.788Z,9.00
2019-02-16T00:43:00.286Z,9.17
2019-02-16T00:45:32.081Z,9.07
2019-02-16T00:48:02.768Z,8.40
2019-02-16T00:50:33.303Z,8.63
2019-02-16T00:53:04.529Z,7.37
2019-02-16T00:55:35.083Z,8.27
2019-02-16T00:58:05.765Z,8.93
2019-02-16T01:00:36.432Z,9.17
2019-02-16T01:03:06.916Z,9.40
2019-02-16T01:05:37.503Z,9.10
2019-02-16T01:08:08.419Z,8.50
2019-02-16T01:10:39.070Z,7.57
2019-02-16T01:13:09.799Z,8.17
2019-02-16T01:15:40.481Z,8.40
2019-02-16T01:18:10.996Z,7.93
2019-02-16T01:20:41.658Z,9.00
2019-02-16T01:23:12.286Z,8.23
2019-02-16T01:25:42.955Z,8.63
2019-02-16T01:28:13.644Z,7.80
2019-02-16T01:30:44.393Z,8.10
2019-02-16T01:33:14.940Z,8.63
2019-02-16T01:35:45.680Z,8.60
2019-02-16T01:38:16.445Z,7.97
2019-02-16T01:40:47.164Z,9.03
2019-02-16T01:43:18.165Z,7.77
2019-02-16T01:45:48.920Z,9.90
2019-02-16T01:48:19.554Z,8.53
2019-02-16T01:50:50.242Z,8.13
2019-02-16T01:53:21.175Z,8.93
2019-02-16T01:55:53.155Z,8.07
2019-02-16T01:58:24.408Z,8.87
2019-02-16T02:00:55.037Z,8.67
2019-02-16T02:03:25.981Z,8.13
2019-02-16T02:05:56.525Z,9.43
2019-02-16T02:08:27.090Z,9.70
2019-02-16T02:10:57.681Z,8.87
2019-02-16T02:13:28.255Z,9.10
2019-02-16T02:15:58.739Z,8.77
2019-02-16T02:18:29.408Z,8.00
2019-02-16T02:21:00.102Z,8.73
2019-02-16T02:23:31.735Z,8.97
2019-02-16T02:26:03.307Z,8.60
2019-02-16T02:28:33.975Z,9.13
2019-02-16T02:31:04.445Z,8.60
2019-02-16T02:33:35.402Z,8.77
2019-02-16T02:36:06.088Z,8.57
2019-02-16T02:38:36.671Z,9.10
2019-02-16T02:41:07.244Z,9.77
2019-02-16T02:43:37.830Z,8.97
2019-02-16T02:46:08.400Z,9.30
2019-02-16T02:48:39.461Z,7.90
2019-02-16T02:51:10.097Z,9.67
2019-02-16T02:53:41.274Z,8.87
2019-02-16T02:56:12.514Z,9.07
2019-02-16T02:58:43.159Z,9.07
2019-02-16T03:01:13.840Z,8.90
2019-02-16T03:03:44.405Z,8.77
2019-02-16T03:06:15.172Z,9.00
2019-02-16T03:08:45.917Z,9.00
2019-02-16T03:11:16.505Z,8.50
2019-02-16T03:13:47.548Z,8.80
2019-02-16T03:16:18.530Z,8.90
2019-02-16T03:18:49.273Z,8.77
2019-02-16T03:21:19.750Z,7.80
2019-02-16T03:23:50.536Z,8.70
2019-02-16T03:26:44.728Z,9.27
2019-02-16T03:29:27.066Z,10.33
2019-02-16T03:32:09.573Z,8.27
2019-02-16T03:35:01.136Z,8.90
2019-02-16T03:37:34.706Z,8.97
2019-02-16T03:40:06.516Z,8.40
2019-02-16T03:42:37.200Z,8.97
2019-02-16T03:45:07.972Z,8.73
2019-02-16T03:47:38.578Z,8.03
2019-02-16T03:50:10.228Z,9.53
2019-02-16T03:52:41.155Z,9.20
2019-02-16T03:55:11.750Z,9.10
2019-02-16T03:57:42.832Z,8.77
2019-02-16T04:00:13.258Z,9.03
2019-02-16T04:02:43.924Z,8.77
2019-02-16T04:05:14.315Z,9.57
2019-02-16T04:07:44.873Z,9.43
2019-02-16T04:10:15.476Z,8.73
2019-02-16T04:12:46.478Z,9.57
2019-02-16T04:15:17.204Z,9.43
2019-02-16T04:17:47.810Z,8.80
2019-02-16T04:20:18.576Z,8.33
2019-02-16T04:22:49.215Z,8.63
2019-02-16T04:25:19.922Z,8.93
2019-02-16T04:27:50.565Z,9.23
2019-02-16T04:30:21.593Z,9.63
2019-02-16T04:32:52.298Z,9.87
2019-02-16T04:35:23.491Z,9.17
2019-02-16T04:37:54.108Z,8.83
2019-02-16T04:40:24.704Z,9.87
2019-02-16T04:42:55.472Z,8.77
2019-02-16T04:45:26.469Z,10.73
2019-02-16T04:47:57.505Z,8.90
2019-02-16T04:50:28.056Z,8.57
2019-02-16T04:52:58.927Z,9.03
2019-02-16T04:55:29.421Z,9.83
2019-02-16T04:58:00.060Z,7.87
2019-02-16T05:00:30.895Z,8.80
2019-02-16T05:03:02.025Z,8.90
2019-02-16T05:05:32.666Z,9.07
2019-02-16T05:08:03.435Z,9.80
2019-02-16T05:10:34.050Z,10.00
2019-02-16T05:13:04.697Z,10.40
2019-02-16T05:15:35.107Z,10.10
2019-02-16T05:18:06.168Z,9.57
2019-02-16T05:20:37.279Z,9.33
2019-02-16T05:23:08.138Z,8.90
2019-02-16T05:25:39.033Z,9.47
2019-02-16T05:28:09.840Z,10.10
2019-02-16T05:30:40.614Z,9.17
2019-02-16T05:33:11.238Z,10.10
2019-02-16T05:35:42.118Z,9.00
2019-02-16T05:38:13.059Z,10.50
2019-02-16T05:40:43.563Z,11.00
2019-02-16T05:43:14.769Z,10.20
2019-02-16T05:45:45.327Z,9.00
2019-02-16T05:48:16.098Z,9.67
2019-02-16T05:50:46.491Z,9.57
2019-02-16T05:53:17.046Z,9.37
2019-02-16T05:55:47.546Z,9.60
2019-02-16T05:58:18.398Z,10.67
2019-02-16T06:00:48.934Z,11.30
2019-02-16T06:03:19.745Z,10.37
2019-02-16T06:05:50.760Z,9.87
2019-02-16T06:08:21.358Z,10.27
2019-02-16T06:10:55.774Z,10.70
2019-02-16T06:13:26.882Z,10.23
2019-02-16T06:15:57.458Z,10.70
2019-02-16T06:18:28.038Z,9.43
2019-02-16T06:20:58.660Z,10.60
2019-02-16T06:23:29.153Z,10.33
2019-02-16T06:25:59.557Z,10.23
2019-02-16T06:28:30.188Z,10.77
2019-02-16T06:31:00.788Z,11.13
2019-02-16T06:33:31.367Z,10.53
2019-02-16T06:36:03.518Z,10.43
2019-02-16T06:38:34.222Z,10.50
2019-02-16T06:41:04.994Z,10.47
2019-02-16T06:43:35.872Z,10.63
2019-02-16T06:46:06.908Z,10.70
2019-02-16T06:48:37.853Z,10.50
2019-02-16T06:51:08.971Z,10.00
2019-02-16T06:53:39.651Z,10.97
2019-02-16T06:56:11.954Z,11.37
2019-02-16T06:58:42.681Z,10.73
2019-02-16T07:01:13.396Z,11.87
2019-02-16T07:03:44.161Z,10.47
2019-02-16T07:06:14.934Z,10.83
2019-02-16T07:08:45.612Z,11.23
2019-02-16T07:11:16.305Z,10.27
2019-02-16T07:13:46.982Z,12.00
2019-02-16T07:16:19.149Z,12.20
2019-02-16T07:18:51.725Z,11.07
2019-02-16T07:21:22.460Z,11.23
2019-02-16T07:23:53.039Z,10.77
2019-02-16T07:26:23.721Z,11.33
2019-02-16T07:28:54.199Z,10.80
2019-02-16T07:31:25.125Z,12.10
2019-02-16T07:33:55.730Z,12.17
2019-02-16T07:36:26.465Z,11.33
2019-02-16T07:38:56.874Z,14.57
2019-02-16T07:41:27.675Z,16.13
2019-02-16T07:44:00.288Z,15.90
2019-02-16T07:46:51.100Z,15.10
2019-02-16T07:49:38.498Z,14.47
2019-02-16T07:52:16.441Z,14.17
2019-02-16T07:54:48.895Z,13.57
2019-02-16T07:57:21.471Z,14.63
2019-02-16T08:00:10.784Z,14.07
2019-02-16T08:02:58.985Z,11.90
2019-02-16T08:05:47.739Z,13.40
2019-02-16T08:08:25.849Z,12.97
2019-02-16T08:11:10.361Z,13.20
2019-02-16T08:13:42.372Z,13.90
2019-02-16T08:16:17.326Z,12.57
2019-02-16T08:18:49.565Z,13.27
2019-02-16T08:21:22.146Z,13.10
2019-02-16T08:23:58.002Z,11.93
2019-02-16T08:26:46.755Z,13.40
2019-02-16T08:29:19.334Z,14.80
2019-02-16T08:31:54.572Z,14.07
2019-02-16T08:34:26.943Z,11.97
2019-02-16T08:36:59.519Z,14.23
2019-02-16T08:39:35.168Z,15.63
2019-02-16T08:42:25.969Z,13.87
2019-02-16T08:45:07.448Z,15.20
2019-02-16T08:47:42.534Z,15.27
2019-02-16T08:50:27.253Z,16.40
2019-02-16T08:52:59.426Z,14.87
2019-02-16T08:55:41.008Z,16.63
2019-02-16T08:58:22.392Z,16.10
2019-02-16T09:01:11.360Z,17.73
2019-02-16T09:04:00.314Z,17.50
2019-02-16T09:06:38.745Z,18.10
2019-02-16T09:09:13.820Z,18.10
2019-02-16T09:11:46.441Z,18.20
2019-02-16T09:14:35.197Z,17.87
2019-02-16T09:17:07.594Z,18.77
2019-02-16T09:19:48.830Z,19.57
2019-02-16T09:22:24.378Z,20.27
2019-02-16T09:24:56.627Z,19.80
2019-02-16T09:27:47.614Z,19.73
2019-02-16T09:30:31.702Z,19.83
2019-02-16T09:33:19.352Z,19.60
2019-02-16T09:35:57.556Z,20.07
2019-02-16T09:38:32.634Z,19.87
2019-02-16T09:41:05.272Z,21.40
2019-02-16T09:43:54.030Z,22.23
2019-02-16T09:46:35.822Z,21.53
2019-02-16T09:49:08.193Z,23.27
2019-02-16T09:51:49.989Z,21.23
2019-02-16T09:54:25.362Z,20.67
2019-02-16T09:57:00.464Z,21.90
2019-02-16T09:59:32.841Z,21.93
2019-02-16T10:02:17.909Z,23.90
2019-02-16T10:04:50.425Z,25.50
2019-02-16T10:07:31.853Z,23.13
2019-02-16T10:10:13.538Z,22.53
2019-02-16T10:12:49.310Z,23.60
2019-02-16T10:15:27.521Z,24.57
2019-02-16T10:18:06.238Z,24.33
2019-02-16T10:20:40.348Z,23.10
2019-02-16T10:23:14.939Z,23.30
2019-02-16T10:25:51.043Z,25.03
2019-02-16T10:28:26.486Z,24.30
2019-02-16T10:31:00.676Z,25.17
2019-02-16T10:33:39.041Z,24.23
2019-02-16T10:36:29.291Z,26.03
2019-02-16T10:39:01.977Z,23.80
2019-02-16T10:41:37.342Z,24.47
2019-02-16T10:44:15.734Z,24.17
2019-02-16T10:47:04.488Z,23.30
2019-02-16T10:49:39.936Z,24.23
2019-02-16T10:52:12.191Z,24.63
2019-02-16T10:54:53.482Z,24.10
2019-02-16T10:57:37.820Z,22.83
2019-02-16T11:00:25.801Z,25.83
2019-02-16T11:03:04.391Z,22.53
2019-02-16T11:05:39.776Z,23.07
2019-02-16T11:08:21.832Z,24.33
2019-02-16T11:10:57.214Z,22.50
2019-02-16T11:13:29.935Z,24.77
2019-02-16T11:16:05.711Z,25.70
2019-02-16T11:18:40.946Z,24.40
2019-02-16T11:21:22.328Z,26.13
2019-02-16T11:24:00.546Z,24.33
2019-02-16T11:26:45.096Z,24.53
2019-02-16T11:29:17.675Z,22.10
2019-02-16T11:31:53.120Z,25.73
2019-02-16T11:34:40.324Z,23.47
2019-02-16T11:37:15.502Z,25.63
2019-02-16T11:39:47.946Z,23.37
2019-02-16T11:42:30.188Z,22.80
2019-02-16T11:45:06.519Z,24.90
2019-02-16T11:47:38.799Z,24.33
2019-02-16T11:50:20.074Z,24.33
2019-02-16T11:52:52.654Z,23.10
2019-02-16T11:55:41.403Z,25.13
2019-02-16T11:58:17.056Z,23.27
2019-02-16T12:00:56.896Z,23.70
2019-02-16T12:03:31.978Z,24.10
2019-02-16T12:06:04.509Z,24.13
2019-02-16T12:08:46.308Z,24.70
2019-02-16T12:11:24.509Z,23.90
2019-02-16T12:13:56.781Z,25.03
2019-02-16T12:16:29.357Z,25.90
2019-02-16T12:19:01.627Z,25.37
2019-02-16T12:21:43.114Z,25.57
2019-02-16T12:24:21.711Z,24.40
2019-02-16T12:27:10.387Z,26.00
2019-02-16T12:29:46.237Z,23.93
2019-02-16T12:32:18.612Z,26.57
2019-02-16T12:35:06.138Z,25.47
2019-02-16T12:37:41.585Z,27.47
2019-02-16T12:40:14.362Z,28.23
2019-02-16T12:42:52.676Z,27.17
2019-02-16T12:45:34.269Z,24.90
2019-02-16T12:48:09.486Z,26.97
2019-02-16T12:50:41.854Z,25.57
2019-02-16T12:53:20.123Z,27.97
2019-02-16T12:55:58.498Z,27.07
2019-02-16T12:58:42.931Z,26.87
2019-02-16T13:01:15.237Z,27.50
2019-02-16T13:03:50.359Z,28.67
2019-02-16T13:06:25.612Z,27.50
2019-02-16T13:09:16.354Z,27.47
2019-02-16T13:12:04.968Z,28.63
2019-02-16T13:14:53.515Z,29.67
2019-02-16T13:17:25.880Z,29.50
2019-02-16T13:20:07.622Z,28.20
2019-02-16T13:22:42.914Z,31.40
2019-02-16T13:25:24.054Z,31.10
2019-02-16T13:27:51.957Z,32.30
2019-02-16T13:30:27.602Z,29.03
2019-02-16T13:33:08.437Z,30.93
2019-02-16T13:35:55.083Z,32.33
2019-02-16T13:38:30.692Z,29.43
2019-02-16T13:41:11.910Z,31.10
2019-02-16T13:43:44.107Z,30.97
2019-02-16T13:46:19.725Z,31.50
2019-02-16T13:48:52.301Z,33.00
2019-02-16T13:51:41.468Z,31.43
2019-02-16T13:54:19.984Z,31.87
2019-02-16T13:56:58.120Z,32.57
2019-02-16T13:59:30.175Z,33.00
2019-02-16T14:02:02.734Z,33.80
2019-02-16T14:04:38.076Z,35.77
2019-02-16T14:07:22.552Z,33.93
2019-02-16T14:10:02.279Z,34.70
2019-02-16T14:12:44.346Z,31.57
2019-02-16T14:15:19.922Z,33.83
2019-02-16T14:17:51.666Z,33.40
2019-02-16T14:20:22.526Z,34.83
2019-02-16T14:22:54.655Z,35.10
2019-02-16T14:25:27.226Z,35.13
2019-02-16T14:27:57.851Z,34.57
2019-02-16T14:30:28.430Z,31.93
2019-02-16T14:32:59.103Z,35.17
2019-02-16T14:35:29.616Z,35.27
2019-02-16T14:38:08.202Z,34.50
2019-02-16T14:40:38.949Z,35.83
2019-02-16T14:43:09.667Z,36.77
2019-02-16T14:45:40.918Z,35.40
2019-02-16T14:48:11.511Z,39.10
2019-02-16T14:50:42.336Z,37.03
2019-02-16T14:53:12.980Z,36.70
2019-02-16T14:55:52.381Z,34.73
2019-02-16T14:58:16.342Z,37.60
2019-02-16T15:00:46.964Z,36.90
2019-02-16T15:03:17.442Z,37.27
2019-02-16T15:05:48.557Z,38.87
2019-02-16T15:08:19.100Z,38.37
2019-02-16T15:10:50.151Z,36.73
2019-02-16T15:13:20.989Z,37.10
2019-02-16T15:15:51.993Z,36.37
2019-02-16T15:18:24.449Z,37.90
2019-02-16T15:20:55.214Z,37.40
2019-02-16T15:23:25.993Z,36.23
2019-02-16T15:26:01.092Z,40.17
2019-02-16T15:28:28.933Z,36.83
2019-02-16T15:30:59.635Z,37.70
2019-02-16T15:33:30.735Z,37.83
2019-02-16T15:36:01.885Z,37.77
2019-02-16T15:38:32.698Z,38.83
2019-02-16T15:41:03.340Z,36.57
2019-02-16T15:43:34.487Z,39.60
2019-02-16T15:46:05.197Z,38.40
2019-02-16T15:48:35.782Z,39.60
2019-02-16T15:51:06.539Z,39.20
2019-02-16T15:53:37.056Z,41.37
2019-02-16T15:56:10.609Z,37.27
2019-02-16T15:58:40.625Z,40.83
2019-02-16T16:01:11.416Z,40.17
2019-02-16T16:03:42.084Z,37.63
2019-02-16T16:06:12.860Z,38.47
2019-02-16T16:08:54.107Z,38.37
2019-02-16T16:11:38.398Z,39.90
2019-02-16T16:14:16.834Z,39.07
2019-02-16T16:16:49.410Z,40.77
2019-02-16T16:19:31.409Z,40.60
2019-02-16T16:22:06.998Z,39.73
2019-02-16T16:24:51.466Z,41.20
2019-02-16T16:27:30.233Z,38.77
2019-02-16T16:30:14.893Z,40.90
2019-02-16T16:32:47.233Z,39.77
2019-02-16T16:35:22.708Z,38.43
2019-02-16T16:38:12.899Z,40.80
2019-02-16T16:40:48.765Z,39.67
2019-02-16T16:43:21.329Z,40.13
2019-02-16T16:45:56.989Z,40.90
2019-02-16T16:48:31.949Z,42.53
2019-02-16T16:51:10.221Z,42.67
2019-02-16T16:53:42.903Z,39.17
2019-02-16T16:56:15.120Z,44.10
2019-02-16T16:58:50.196Z,39.60
2019-02-16T17:01:25.145Z,41.67
2019-02-16T17:04:13.956Z,43.47
2019-02-16T17:06:49.074Z,41.83
2019-02-16T17:09:24.506Z,41.80
2019-02-16T17:11:56.744Z,40.27
2019-02-16T17:14:29.325Z,41.23
2019-02-16T17:17:17.880Z,41.17
2019-02-16T17:19:56.389Z,42.63
2019-02-16T17:22:44.948Z,42.03
2019-02-16T17:25:26.534Z,41.50
2019-02-16T17:28:05.047Z,42.20
2019-02-16T17:30:37.628Z,41.50
2019-02-16T17:33:18.801Z,40.87
2019-02-16T17:35:57.112Z,40.57
2019-02-16T17:38:38.391Z,39.50
2019-02-16T17:41:13.957Z,41.07
2019-02-16T17:43:45.669Z,42.40
2019-02-16T17:46:33.687Z,43.27
2019-02-16T17:49:05.461Z,40.97
2019-02-16T17:51:38.072Z,38.33
2019-02-16T17:54:12.901Z,39.37
2019-02-16T17:56:54.844Z,39.77
2019-02-16T17:59:46.830Z,37.80
2019-02-16T18:02:28.012Z,41.57
2019-02-16T18:05:03.730Z,39.77
2019-02-16T18:07:36.387Z,40.17
2019-02-16T18:10:09.011Z,36.17
2019-02-16T18:12:41.604Z,39.47
2019-02-16T18:15:19.856Z,39.83
2019-02-16T18:17:55.347Z,44.93
2019-02-16T18:20:36.716Z,35.90
2019-02-16T18:23:09.308Z,40.30
2019-02-16T18:25:41.680Z,42.80
2019-02-16T18:28:19.991Z,39.83
2019-02-16T18:30:56.309Z,39.70
2019-02-16T18:33:31.424Z,40.50
2019-02-16T18:36:10.220Z,41.93
2019-02-16T18:38:54.756Z,46.13
2019-02-16T18:41:33.184Z,41.60
2019-02-16T18:44:05.776Z,42.73
2019-02-16T18:47:30.788Z,43.77
2019-02-16T18:50:21.580Z,41.50
2019-02-16T18:52:53.940Z,42.37
2019-02-16T18:55:42.699Z,43.30
2019-02-16T18:58:18.559Z,45.30
2019-02-16T19:00:53.997Z,43.20
2019-02-16T19:03:29.135Z,43.43
2019-02-16T19:06:07.757Z,46.33
2019-02-16T19:08:43.416Z,45.77
2019-02-16T19:11:34.184Z,42.47
2019-02-16T19:14:06.172Z,41.70
2019-02-16T19:16:55.335Z,42.37
2019-02-16T19:19:30.523Z,44.13
2019-02-16T19:22:15.031Z,42.00
2019-02-16T19:25:02.649Z,42.90
2019-02-16T19:27:51.317Z,44.40
2019-02-16T19:30:42.323Z,43.47
2019-02-16T19:33:23.549Z,42.37
2019-02-16T19:35:58.674Z,44.20
2019-02-16T19:38:43.503Z,42.20
2019-02-16T19:41:21.849Z,41.40
2019-02-16T19:44:00.173Z,40.77
2019-02-16T19:46:32.862Z,43.43
2019-02-16T19:49:05.393Z,42.90
2019-02-16T19:51:47.187Z,40.87
2019-02-16T19:54:38.192Z,40.90
2019-02-16T19:57:10.834Z,40.73
2019-02-16T19:59:55.830Z,43.80
2019-02-16T20:02:31.071Z,45.10
2019-02-16T20:05:09.257Z,41.10
2019-02-16T20:07:44.826Z,42.40
2019-02-16T20:10:17.203Z,39.57
2019-02-16T20:13:05.861Z,45.13
2019-02-16T20:15:41.402Z,39.50
2019-02-16T20:18:17.125Z,41.00
2019-02-16T20:20:55.500Z,42.10
2019-02-16T20:23:36.123Z,42.40
2019-02-16T20:26:26.462Z,41.40
2019-02-16T20:29:15.692Z,39.40
2019-02-16T20:31:51.136Z,40.87
2019-02-16T20:34:32.723Z,42.80
2019-02-16T20:37:08.373Z,39.73
2019-02-16T20:39:43.511Z,40.83
2019-02-16T20:42:16.083Z,42.47
2019-02-16T20:44:51.655Z,43.13
2019-02-16T20:47:24.045Z,41.33
2019-02-16T20:50:11.627Z,44.43
2019-02-16T20:53:00.130Z,45.20
2019-02-16T20:55:35.420Z,46.47
2019-02-16T20:58:20.292Z,48.10
2019-02-16T21:00:55.937Z,47.37
2019-02-16T21:03:44.898Z,50.97
2019-02-16T21:06:26.691Z,51.43
2019-02-16T21:09:08.278Z,52.00
2019-02-16T21:11:56.123Z,53.47
2019-02-16T21:14:37.800Z,54.87
2019-02-16T21:17:13.460Z,53.73
2019-02-16T21:19:51.970Z,57.07
2019-02-16T21:22:24.543Z,56.13
2019-02-16T21:24:57.122Z,57.90
2019-02-16T21:27:29.564Z,57.27
2019-02-16T21:30:02.069Z,59.10
2019-02-16T21:32:46.723Z,56.50
2019-02-16T21:35:22.175Z,55.80
2019-02-16T21:38:10.111Z,54.93
2019-02-16T21:40:42.687Z,55.37
2019-02-16T21:43:21.326Z,54.60
2019-02-16T21:45:53.781Z,60.90
2019-02-16T21:48:35.167Z,58.27
2019-02-16T21:51:19.662Z,57.20
2019-02-16T21:53:54.657Z,56.60
2019-02-16T21:56:27.335Z,55.17
2019-02-16T21:59:19.162Z,56.90
2019-02-16T22:01:50.307Z,54.50
2019-02-16T22:04:23.092Z,57.23
2019-02-16T22:07:01.339Z,53.60
2019-02-16T22:09:52.305Z,60.30
2019-02-16T22:12:30.818Z,62.10
2019-02-16T22:15:02.538Z,60.30
2019-02-16T22:17:33.431Z,63.80
2019-02-16T22:20:04.684Z,64.17
2019-02-16T22:22:35.395Z,59.90
2019-02-16T22:25:06.363Z,62.73
2019-02-16T22:27:37.522Z,59.23
2019-02-16T22:30:10.363Z,59.40
2019-02-16T22:32:40.684Z,61.63
2019-02-16T22:35:11.625Z,57.67
2019-02-16T22:37:42.424Z,58.17
2019-02-16T22:40:13.115Z,60.57
2019-02-16T22:42:43.822Z,58.73
2019-02-16T22:45:14.726Z,57.97
2019-02-16T22:47:45.507Z,58.10
2019-02-16T22:50:15.994Z,56.30
2019-02-16T22:52:46.876Z,58.13
2019-02-16T22:55:17.612Z,58.07
2019-02-16T22:57:48.207Z,57.50
2019-02-16T23:00:21.829Z,54.70
2019-02-16T23:02:52.544Z,57.83
2019-02-16T23:05:23.353Z,56.87
2019-02-16T23:07:53.798Z,58.10
2019-02-16T23:10:24.862Z,62.17
2019-02-16T23:12:55.623Z,60.83
2019-02-16T23:15:26.787Z,64.77
2019-02-16T23:17:57.459Z,62.03
2019-02-16T23:20:29.239Z,61.53
2019-02-16T23:22:59.947Z,63.07
2019-02-16T23:25:30.663Z,63.20
2019-02-16T23:28:01.579Z,64.77
2019-02-16T23:30:35.247Z,62.90
2019-02-16T23:33:05.581Z,62.77
2019-02-16T23:35:36.264Z,61.63
2019-02-16T23:38:07.380Z,60.80
2019-02-16T23:40:38.246Z,62.90
2019-02-16T23:43:08.878Z,60.90
2019-02-16T23:45:39.655Z,60.37
2019-02-16T23:48:10.259Z,66.00
2019-02-16T23:50:41.031Z,63.67
2019-02-16T23:53:11.985Z,67.60
2019-02-16T23:55:42.756Z,62.80
2019-02-16T23:58:13.658Z,61.53
